Mobirise responsive web design software

REALTIME WEATHER NETWORK

Station: ALVERCA
Elevation: 11 ft
Latest report: --

METAR
Station not yet available

Station: AGUEDA (CASARÃO)
Elevation: 304 ft
Latest report: --

METAR
Station not yet available

Station: ALENTEJO AIR PARK
Elevation: 422 ft
Latest report: --

METAR
Station not yet available

Station: ALQUEIDÃO
Elevation: 10 ft
Latest report: --

METAR
Station not yet available

Station: AMENDOEIRA
Elevation: 636 ft
Latest report: --

METAR
Station not yet available

Station: ATOUGUIA DA BALEIA
Elevation: 30 ft
Latest report: --

METAR
Station not yet available

Station: AZAMBUJA
Elevation: 15 ft
Latest report: --

METAR
Station not yet available

Station: BEJA
Elevation: 636 ft
Latest report: NOAA

METAR
LPBJ 181700Z 33015KT CAVOK 37/04 Q1015

TAF
LPBJ 181703Z 1818/1918 34010KT CAVOK PROB40
TEMPO 1818/1820 35012G22KT
BECMG 1900/1902 34005KT
BECMG 1916/1918 34012KT

Station: BEJA CIVIL
Elevation: 617 ft
Latest report: --

METAR
Station not yet available

Station: BENAVENTE
Elevation: 100 ft
Latest report: 2017-08-18 17:56:41Z

METAR
BENAV 181755Z 34014KT 27/21 Q1016

Station: BRAGA
Elevation: 243 ft
Latest report: --

METAR
Station not yet available

Station: BRAGANÇA
Elevation: 2278 ft
Latest report: 2017-08-16 19:07:41Z

METAR
LPBG 161905Z 30016KT 28/14 Q1020

Station: CABECEIRAS DE BASTO
Elevation: 2411 ft
Latest report: --

METAR
Station not yet available

Station: CASCAIS
Elevation: 326 ft
Latest report: NOAA

METAR
LPCS 181730Z 36023KT 9999 FEW010 25/17 Q1017 WS R35

Station: CASTELO BRANCO
Elevation: 1251 ft
Latest report: --

METAR
Station not yet available

Station: CASTRO VERDE (HERDADE DA ZAMBUJEIRA)
Elevation: 732 ft
Latest report: --

METAR
Station not yet available

Station: CERVAL
Elevation: 141 ft
Latest report: --

METAR
Station not yet available

Station: CHAVES
Elevation: 1195 ft
Latest report: --

METAR
Station not yet available

Station: ESPINHO
Elevation: 13 ft
Latest report: --

METAR
Station not yet available

Station: ÉVORA
Elevation: 807 ft
Latest report: --

METAR
Station not yet available

Station: FARO
Elevation: 24 ft
Latest report: NOAA

METAR
LPFR 181730Z 18004KT 150V230 CAVOK 27/17 Q1014

TAF
LPFR 181700Z 1818/1918 19005KT CAVOK
BECMG 1818/1821 35010KT
BECMG 1900/1903 VRB03KT
BECMG 1909/1911 20007KT
BECMG 1913/1916 24008KT

Station: FERREIRA DO ALENTEJO
Elevation: 459 ft
Latest report: --

METAR
Station not yet available

Station: FERREIRA DO ZÊZERE (VALADAS)
Elevation: 1080 ft
Latest report: --

METAR
Station not yet available

Station: FIGUEIRA DOS CAVALEIROS
Elevation: 262 ft
Latest report: --

METAR
Station not yet available

Station: LAGOS
Elevation: 15 ft
Latest report: --

METAR
Station not yet available

Station: LAMEIRA
Elevation: 623 ft
Latest report: --

METAR
Station not yet available

Station: LAÚNDOS
Elevation: 262 ft
Latest report: --

METAR
Station not yet available

Station: LEIRIA
Elevation: 139 ft
Latest report: --

METAR
Station not yet available

Station: LISBOA
Elevation: 374 ft
Latest report: NOAA

METAR
LPPT 181730Z 34021KT 9999 FEW028 27/17 Q1017

TAF
LPPT 181700Z 1818/1924 34020KT CAVOK
TEMPO 1818/1821 34023G33KT
BECMG 1822/1824 35012KT
BECMG 1913/1915 34017KT PROB30
TEMPO 1915/1921 34020G30KT
BECMG 1921/1924 34010KT

Station: LOUSÃ
Elevation: 654 ft
Latest report: --

METAR
Station not yet available

Station: VILAR DE LUZ
Elevation: 762 ft
Latest report: 2017-08-18 17:53:55Z

METAR
LPVL 181750Z 30014KT 24/17 Q1020

Station: MIRANDELA
Elevation: 1322 ft
Latest report: 2017-08-18 17:56:41Z

METAR
LPMI 181755Z 35014KT 30/15 Q1016

Station: MOGADOURO
Elevation: 2344 ft
Latest report: 2017-08-18 17:56:30Z

METAR
LPMU 181755Z 31016KT 29/11 Q1019

Station: MONFORTE
Elevation: 900 ft
Latest report: --

METAR
Station not yet available

Station: PALMA
Elevation: 281 ft
Latest report: --

METAR
Station not yet available

Station: PEGÕES (HERDADE DO PONTAL
Elevation: 295 ft
Latest report: --

METAR
Station not yet available

Station: PONTE DE SÔR
Elevation: 390 ft
Latest report: --

METAR
Station not yet available

Station: POMBAL (CASALINHO)
Elevation: 250 ft
Latest report: --

METAR
Station not yet available

Station: PORTIMÃO
Elevation: 4 ft
Latest report: --

METAR
Station not yet available

Station: PORTO
Elevation: 227 ft
Latest report: NOAA

METAR
LPPR 181730Z 34014KT 9999 FEW020 22/17 Q1019

TAF
LPPR 181700Z 1818/1918 32013KT 9999 FEW008 PROB30
TEMPO 1818/1823 3000 BR BKN005
BECMG 1819/1822 36005KT
BECMG 1911/1913 32015KT FEW020

Station: PROENÇA-A-NOVA
Elevation: 407 ft
Latest report: --

METAR
Station not yet available

Station: REGUENGOS (CAMPINHO)
Elevation: 630 ft
Latest report: --

METAR
Station not yet available

Station: SABUGAL (CABEÇO DA VACA)
Elevation: 3117 ft
Latest report: --

METAR
Station not yet available

Station: SANTA CRUZ
Elevation: 161 ft
Latest report: --

METAR
Station not yet available

Station: SANTARÉM
Elevation: 30 ft
Latest report: --

METAR
Station not yet available

Station: SEIA
Elevation: 1445 ft
Latest report: --

METAR
Station not yet available

Station: TOJEIRA
Elevation: 330 ft
Latest report: --

METAR
Station not yet available

Station: TOMAR (VALDONAS)
Elevation: 253 ft
Latest report: --

METAR
Station not yet available

Station: VILA REAL
Elevation: 1832 ft
Latest report: --

METAR
Station not yet available

Station: VISEU
Elevation: 2061 ft
Latest report: --

METAR
Station not yet available

Station: LEZÍRIA
Elevation: 10 ft
Latest report: --

METAR
Station not yet available

Station: FAIAS
Elevation: 134 ft
Latest report: --Z

METAR
Station not yet available

Station: COIMBRA
Elevation: 570 ft
Latest report: --Z

METAR
Station not yet available

ABOUT US

Our main objective is to increase information and safety on outdoor activities with a focus on Sports Aviation. This network of weather information gathers data from devices located in several airfields and other locations in order to provide the most accurate and localized weather information at all times. Join our network to increase the number of locations covered. Check how on the CONTACT US section.

REALTIME WEATHER NETWORK by Stingray Avionics

JOIN OUR NETWORK